Time;durP1;ratioP1;P1;durP2;ratioP2;P2;SDS_P1;SDS_P2;PMS_P1;PMS_P2;Temp;Humidity;BMP_temperature;BMP_pressure;BME280_temperature;BME280_humidity;BME280_pressure;Samples;Min_cycle;Max_cycle;Signal;HPM_P1;HPM_P2
2022/01/07 00:01:03;;;;;;;5.10;3.00;;;;;;;0.79;100.00;101331.66;6155320;28;20138;-82
2022/01/07 00:04:06;;;;;;;6.75;2.40;;;;;;;0.78;100.00;101326.50;6155314;29;20599;-82
2022/01/07 00:07:08;;;;;;;6.50;3.28;;;;;;;0.76;100.00;101327.34;6155151;28;20055;-81
2022/01/07 00:10:12;;;;;;;8.88;3.17;;;;;;;0.74;100.00;101329.09;6155542;29;20054;-81
2022/01/07 00:13:15;;;;;;;10.35;2.35;;;;;;;0.73;100.00;101329.13;6155850;29;20047;-82
2022/01/07 00:16:17;;;;;;;4.80;2.65;;;;;;;0.69;100.00;101314.47;6155213;28;20051;-82
2022/01/07 00:19:19;;;;;;;4.78;3.05;;;;;;;0.67;100.00;101311.00;6174086;28;20133;-82
2022/01/07 00:22:20;;;;;;;6.95;3.03;;;;;;;0.66;100.00;101319.63;6199978;28;20409;-81
2022/01/07 00:25:22;;;;;;;6.32;2.35;;;;;;;0.69;100.00;101301.53;6155191;29;20051;-83
2022/01/07 00:28:25;;;;;;;5.03;2.45;;;;;;;0.73;100.00;101290.31;6175465;28;20046;-82
2022/01/07 00:31:26;;;;;;;6.78;2.15;;;;;;;0.73;100.00;101291.16;6187829;28;20050;-82
2022/01/07 00:34:28;;;;;;;4.72;2.25;;;;;;;0.75;100.00;101283.41;6155397;29;20054;-82
2022/01/07 00:37:29;;;;;;;7.45;2.42;;;;;;;0.73;100.00;101267.88;6155089;28;20052;-82
2022/01/07 00:40:31;;;;;;;7.43;2.50;;;;;;;0.71;100.00;101261.00;6154987;28;20077;-82
2022/01/07 00:43:34;;;;;;;4.93;2.45;;;;;;;0.75;100.00;101258.38;6162729;28;20054;-81
2022/01/07 00:46:35;;;;;;;5.40;3.70;;;;;;;0.76;100.00;101248.88;6203242;28;20520;-82
2022/01/07 00:49:37;;;;;;;3.88;2.78;;;;;;;0.72;100.00;101229.09;6168171;28;20054;-82
2022/01/07 00:52:38;;;;;;;9.02;3.28;;;;;;;0.75;100.00;101235.09;6158386;29;20043;-81
2022/01/07 00:55:40;;;;;;;11.55;3.58;;;;;;;0.77;100.00;101224.75;6156751;29;20047;-82
2022/01/07 00:58:43;;;;;;;5.35;2.95;;;;;;;0.84;100.00;101223.84;6153257;29;20498;-82
2022/01/07 01:01:44;;;;;;;3.28;2.35;;;;;;;0.82;100.00;101223.00;6153024;28;20055;-82
2022/01/07 01:04:46;;;;;;;7.28;2.40;;;;;;;0.85;100.00;101219.53;6153134;29;20055;-82
2022/01/07 01:07:48;;;;;;;3.42;2.17;;;;;;;0.86;100.00;101216.91;6152883;28;20066;-82
2022/01/07 01:10:49;;;;;;;6.75;3.00;;;;;;;0.92;100.00;101216.91;6152727;28;20059;-82
2022/01/07 01:13:52;;;;;;;3.30;3.00;;;;;;;0.88;100.00;101217.78;6152959;28;20419;-82
2022/01/07 01:16:53;;;;;;;2.45;1.40;;;;;;;0.90;100.00;101210.88;6152593;28;20055;-82
2022/01/07 01:19:54;;;;;;;3.75;2.05;;;;;;;0.97;100.00;101211.72;6169051;28;20058;-82
2022/01/07 01:22:56;;;;;;;6.60;2.65;;;;;;;0.91;100.00;101211.72;6176288;28;20051;-82
2022/01/07 01:25:57;;;;;;;5.38;2.10;;;;;;;0.90;100.00;101203.09;6177274;28;20055;-80
2022/01/07 01:29:00;;;;;;;1.52;1.30;;;;;;;0.93;100.00;101202.25;6178264;28;20054;-82
2022/01/07 01:32:03;;;;;;;3.15;1.85;;;;;;;0.96;100.00;101191.88;6178773;28;20046;-81
2022/01/07 01:35:06;;;;;;;4.45;1.48;;;;;;;0.95;100.00;101183.25;6178218;28;20053;-82
2022/01/07 01:38:08;;;;;;;4.20;2.22;;;;;;;0.98;100.00;101179.78;6178646;28;20549;-82
2022/01/07 01:41:10;;;;;;;6.38;1.95;;;;;;;0.96;100.00;101171.19;6179289;28;20051;-82
2022/01/07 01:44:13;;;;;;;3.90;2.30;;;;;;;1.02;100.00;101168.53;6177882;28;20487;-80
2022/01/07 01:47:14;;;;;;;7.57;2.28;;;;;;;1.01;100.00;101159.06;6176157;28;20051;-82
2022/01/07 01:50:16;;;;;;;2.67;1.88;;;;;;;1.01;100.00;101159.06;6174713;28;20058;-81
2022/01/07 01:53:18;;;;;;;2.80;1.55;;;;;;;1.04;100.00;101151.25;6176800;28;20058;-80
2022/01/07 01:56:20;;;;;;;6.25;1.85;;;;;;;1.04;100.00;101145.22;6176388;28;20050;-82
2022/01/07 01:59:27;;;;;;;5.38;2.17;;;;;;;1.10;100.00;101138.28;6176400;28;20051;-81
2022/01/07 02:02:28;;;;;;;2.05;1.58;;;;;;;1.15;100.00;101133.06;6175402;28;20054;-81
2022/01/07 02:05:30;;;;;;;1.92;1.48;;;;;;;1.14;100.00;101134.81;6176094;28;20047;-80
2022/01/07 02:08:31;;;;;;;5.00;2.15;;;;;;;1.18;100.00;101128.75;6175534;28;20051;-80
2022/01/07 02:11:34;;;;;;;3.97;1.83;;;;;;;1.23;100.00;101116.59;6175452;28;20414;-80
2022/01/07 02:14:37;;;;;;;2.00;1.60;;;;;;;1.25;100.00;101116.59;6175609;28;20051;-80
2022/01/07 02:17:41;;;;;;;3.72;2.03;;;;;;;1.16;100.00;101109.75;6175417;28;20038;-79
2022/01/07 02:20:44;;;;;;;2.83;1.30;;;;;;;1.17;100.00;101103.69;6183470;28;20046;-80
2022/01/07 02:23:46;;;;;;;5.55;1.55;;;;;;;1.19;100.00;101104.56;6187112;28;20057;-81
2022/01/07 02:26:47;;;;;;;1.95;1.23;;;;;;;1.19;100.00;101096.78;6199587;28;20062;-79
2022/01/07 02:29:50;;;;;;;1.52;1.40;;;;;;;1.25;100.00;101088.09;6187864;28;20050;-81
2022/01/07 02:32:51;;;;;;;5.72;2.42;;;;;;;1.26;100.00;101079.47;6195548;28;20053;-80
2022/01/07 02:35:54;;;;;;;9.60;2.65;;;;;;;1.30;100.00;101075.97;6198923;28;20421;-81
2022/01/07 02:38:55;;;;;;;1.70;1.25;;;;;;;1.32;100.00;101068.19;6199539;28;20051;-80
2022/01/07 02:41:57;;;;;;;2.28;1.63;;;;;;;1.33;100.00;101069.91;6199073;28;20050;-80
2022/01/07 02:44:59;;;;;;;11.98;2.47;;;;;;;1.32;100.00;101069.06;6199282;28;20047;-80
2022/01/07 02:48:02;;;;;;;2.40;1.23;;;;;;;1.33;100.00;101055.25;6193315;28;20438;-81
2022/01/07 02:51:05;;;;;;;3.10;1.27;;;;;;;1.38;100.00;101061.22;6181390;28;20055;-80
2022/01/07 02:54:07;;;;;;;1.27;0.90;;;;;;;1.37;100.00;101054.34;6175387;28;20057;-81
2022/01/07 02:57:09;;;;;;;3.15;1.73;;;;;;;1.41;100.00;101039.59;6175018;28;20047;-81
2022/01/07 03:00:12;;;;;;;4.85;1.38;;;;;;;1.46;100.00;101038.69;6174915;28;20077;-80
2022/01/07 03:03:13;;;;;;;5.10;1.35;;;;;;;1.44;100.00;101027.47;6175951;28;20054;-81
2022/01/07 03:06:16;;;;;;;2.63;1.08;;;;;;;1.46;100.00;101028.34;6166679;28;20051;-81
2022/01/07 03:09:18;;;;;;;4.43;1.73;;;;;;;1.53;100.00;101021.34;6164860;28;20055;-80
2022/01/07 03:12:19;;;;;;;1.83;1.48;;;;;;;1.53;100.00;101014.44;6163061;28;20509;-80
2022/01/07 03:15:21;;;;;;;6.63;1.63;;;;;;;1.57;100.00;101012.66;6168880;28;20054;-79
2022/01/07 03:18:22;;;;;;;6.93;1.30;;;;;;;1.63;100.00;101003.94;6175713;28;20050;-80
2022/01/07 03:21:25;;;;;;;4.78;1.27;;;;;;;1.71;100.00;101002.13;6174861;28;20057;-81
2022/01/07 03:24:26;;;;;;;0.73;0.63;;;;;;;1.66;100.00;100991.81;6175916;28;20051;-80
2022/01/07 03:27:28;;;;;;;3.42;1.60;;;;;;;1.69;100.00;100983.19;6175715;28;20421;-81
2022/01/07 03:30:29;;;;;;;6.28;1.17;;;;;;;1.70;100.00;100987.47;6175328;28;20047;-80
2022/01/07 03:33:31;;;;;;;5.00;1.02;;;;;;;1.79;100.00;100992.53;6175600;28;20058;-80
2022/01/07 03:36:33;;;;;;;1.58;1.15;;;;;;;1.77;100.00;100991.69;6175329;28;20058;-80
2022/01/07 03:39:35;;;;;;;2.42;1.20;;;;;;;1.83;100.00;100983.00;6175415;28;20058;-81
2022/01/07 03:42:36;;;;;;;3.72;1.00;;;;;;;1.85;100.00;100987.25;6175175;28;20054;-81
2022/01/07 03:45:38;;;;;;;0.88;0.70;;;;;;;1.89;100.00;100980.31;6175505;28;20062;-81
2022/01/07 03:48:40;;;;;;;6.18;1.60;;;;;;;1.93;100.00;100981.97;6175371;28;20069;-81
2022/01/07 03:51:43;;;;;;;3.20;1.15;;;;;;;1.95;100.00;100975.91;6153690;28;20047;-80
2022/01/07 03:54:44;;;;;;;7.43;1.38;;;;;;;1.95;100.00;100970.72;6151891;28;20415;-81
2022/01/07 03:57:46;;;;;;;1.13;1.00;;;;;;;2.02;100.00;100974.06;6158609;28;20043;-80
2022/01/07 04:00:47;;;;;;;4.13;1.85;;;;;;;1.99;100.00;100966.31;6185831;28;20046;-82
2022/01/07 04:03:49;;;;;;;4.78;1.13;;;;;;;1.86;100.00;100969.97;6190603;28;20051;-81
2022/01/07 04:06:51;;;;;;;2.20;1.38;;;;;;;1.78;100.00;100972.69;6193281;28;20038;-80
2022/01/07 04:09:53;;;;;;;1.83;1.17;;;;;;;1.65;100.00;100953.00;6199200;28;20057;-80
2022/01/07 04:12:54;;;;;;;3.83;1.42;;;;;;;1.58;100.00;100953.94;6203701;28;20418;-79
2022/01/07 04:15:55;;;;;;;5.55;1.48;;;;;;;1.50;100.00;100960.09;6199686;28;20055;-79
2022/01/07 04:18:57;;;;;;;2.53;0.80;;;;;;;1.44;100.00;100956.72;6195330;28;20498;-80
2022/01/07 04:22:00;;;;;;;3.60;1.38;;;;;;;1.40;100.00;100950.72;6209813;28;20061;-80
2022/01/07 04:25:03;;;;;;;6.07;1.90;;;;;;;1.38;100.00;100934.34;6222560;28;20050;-81
2022/01/07 04:28:07;;;;;;;2.70;1.77;;;;;;;1.35;100.00;100944.75;6197687;28;20050;-81
2022/01/07 04:31:08;;;;;;;6.05;1.80;;;;;;;1.29;100.00;100928.44;6176062;29;20058;-81
2022/01/07 04:34:10;;;;;;;1.92;1.25;;;;;;;1.26;100.00;100935.34;6170992;28;20055;-81
2022/01/07 04:37:13;;;;;;;2.30;1.95;;;;;;;1.20;100.00;100919.91;6199308;28;20050;-81
2022/01/07 04:40:15;;;;;;;3.05;1.60;;;;;;;1.19;100.00;100918.19;6192187;28;20062;-82
2022/01/07 04:43:17;;;;;;;1.77;1.15;;;;;;;1.17;100.00;100914.75;6174662;28;20058;-82
2022/01/07 04:46:18;;;;;;;5.53;1.55;;;;;;;1.16;100.00;100905.28;6169252;28;20059;-81
2022/01/07 04:49:19;;;;;;;1.45;1.00;;;;;;;1.16;100.00;100901.84;6169821;28;20695;-80
2022/01/07 04:52:22;;;;;;;1.40;0.57;;;;;;;1.19;100.00;100899.22;6157511;28;20250;-81
2022/01/07 04:55:26;;;;;;;3.45;1.35;;;;;;;1.24;100.00;100900.88;6157307;29;20058;-81
2022/01/07 04:58:27;;;;;;;1.88;1.73;;;;;;;1.22;100.00;100896.56;6164561;28;20058;-81
2022/01/07 05:01:28;;;;;;;1.95;1.17;;;;;;;1.21;100.00;100900.03;6197712;28;20046;-82
2022/01/07 05:04:30;;;;;;;1.65;1.20;;;;;;;1.25;100.00;100896.56;6206000;28;20050;-81
2022/01/07 05:07:34;;;;;;;2.53;1.38;;;;;;;1.24;100.00;100893.09;6205782;28;20057;-81
2022/01/07 05:10:37;;;;;;;3.15;1.85;;;;;;;1.21;100.00;100889.69;6205317;28;20050;-81
2022/01/07 05:13:38;;;;;;;2.40;1.58;;;;;;;1.26;100.00;100885.31;6187108;28;20051;-81
2022/01/07 05:16:40;;;;;;;2.63;1.05;;;;;;;1.21;100.00;100879.34;6182249;28;20050;-81
2022/01/07 05:19:41;;;;;;;1.80;1.35;;;;;;;1.15;100.00;100871.66;6181431;28;20058;-82
2022/01/07 05:22:44;;;;;;;4.88;1.52;;;;;;;1.19;100.00;100871.59;6179577;28;20388;-81
2022/01/07 05:25:46;;;;;;;5.15;1.17;;;;;;;1.15;100.00;100864.75;6179852;28;20046;-80
2022/01/07 05:28:47;;;;;;;4.47;1.92;;;;;;;1.07;100.00;100856.22;6178879;28;20057;-81
2022/01/07 05:31:49;;;;;;;2.60;1.40;;;;;;;1.09;100.00;100851.91;6179119;28;20058;-81
2022/01/07 05:34:50;;;;;;;6.93;1.75;;;;;;;1.10;100.00;100856.19;6178301;28;20058;-81
2022/01/07 05:37:53;;;;;;;1.98;0.90;;;;;;;1.14;100.00;100847.53;6177966;28;20058;-82
2022/01/07 05:40:54;;;;;;;3.83;2.13;;;;;;;1.17;100.00;100846.59;6178369;28;20185;-82
2022/01/07 05:43:56;;;;;;;2.10;1.02;;;;;;;1.13;100.00;100840.59;6176688;28;20127;-81
2022/01/07 05:46:57;;;;;;;2.08;1.45;;;;;;;1.10;100.00;100843.25;6153682;28;20047;-82
2022/01/07 05:49:59;;;;;;;2.10;1.23;;;;;;;1.13;100.00;100834.56;6153607;29;20051;-80
2022/01/07 05:53:01;;;;;;;2.75;1.33;;;;;;;1.14;100.00;100838.91;6153980;29;20047;-81
2022/01/07 05:56:03;;;;;;;4.03;1.23;;;;;;;1.13;100.00;100832.00;6153304;28;20054;-79
2022/01/07 05:59:04;;;;;;;9.18;1.38;;;;;;;1.11;100.00;100834.59;6152312;29;20058;-80
2022/01/07 06:02:06;;;;;;;3.92;1.35;;;;;;;1.10;100.00;100840.66;6152404;29;20055;-79
2022/01/07 06:05:08;;;;;;;2.03;1.15;;;;;;;1.14;100.00;100832.00;6152784;29;20051;-81
2022/01/07 06:08:11;;;;;;;2.92;1.48;;;;;;;1.15;100.00;100828.53;6151936;29;20043;-81
2022/01/07 06:11:12;;;;;;;1.52;1.27;;;;;;;1.17;100.00;100825.91;6150817;29;20047;-81
2022/01/07 06:14:13;;;;;;;2.00;1.50;;;;;;;1.19;100.00;100821.56;6152012;28;20051;-81
2022/01/07 06:17:15;;;;;;;1.85;1.27;;;;;;;1.23;100.00;100820.66;6161344;28;20046;-81
2022/01/07 06:20:18;;;;;;;1.88;1.40;;;;;;;1.23;100.00;100805.97;6181398;28;20043;-81
2022/01/07 06:23:21;;;;;;;5.65;2.45;;;;;;;1.26;100.00;100813.69;6185738;28;20039;-81
2022/01/07 06:26:22;;;;;;;2.33;1.45;;;;;;;1.22;100.00;100817.19;6174695;28;20498;-81
2022/01/07 06:29:24;;;;;;;4.68;2.10;;;;;;;1.15;100.00;100818.16;6192775;28;20057;-81
2022/01/07 06:32:25;;;;;;;1.77;1.30;;;;;;;1.14;100.00;100811.28;6177711;28;20058;-81
2022/01/07 06:35:27;;;;;;;2.55;1.50;;;;;;;1.16;100.00;100812.09;6176731;28;20050;-80
2022/01/07 06:38:29;;;;;;;2.60;1.33;;;;;;;1.21;100.00;100804.28;6184927;28;20062;-80
2022/01/07 06:41:31;;;;;;;6.65;1.65;;;;;;;1.19;100.00;100801.72;6194194;28;20058;-80
2022/01/07 06:44:32;;;;;;;2.13;1.10;;;;;;;1.22;100.00;100803.41;6197673;28;20042;-81
2022/01/07 06:47:34;;;;;;;1.88;1.30;;;;;;;1.19;100.00;100796.53;6176895;28;20499;-81
2022/01/07 06:50:35;;;;;;;6.13;2.00;;;;;;;1.22;100.00;100806.84;6176558;28;20051;-80
2022/01/07 06:53:38;;;;;;;2.95;1.58;;;;;;;1.30;100.00;100795.53;6175802;28;20052;-81
2022/01/07 06:56:40;;;;;;;2.90;2.03;;;;;;;1.28;100.00;100803.31;6176830;28;20495;-81
2022/01/07 06:59:41;;;;;;;1.25;0.93;;;;;;;1.37;100.00;100799.75;6177610;28;20720;-81
2022/01/07 07:02:42;;;;;;;2.50;2.10;;;;;;;1.34;100.00;100802.38;6168029;28;20073;-81
2022/01/07 07:05:44;;;;;;;2.10;1.55;;;;;;;1.31;100.00;100805.00;6172417;28;20442;-82
2022/01/07 07:08:47;;;;;;;2.33;1.20;;;;;;;1.31;100.00;100789.47;6151295;29;20055;-81
2022/01/07 07:11:48;;;;;;;9.40;2.42;;;;;;;1.36;100.00;100787.66;6150999;29;20062;-81
2022/01/07 07:14:50;;;;;;;4.05;1.20;;;;;;;1.38;100.00;100785.94;6161075;28;20074;-81
2022/01/07 07:17:51;;;;;;;4.50;1.35;;;;;;;1.37;100.00;100786.81;6161605;28;20051;-81
2022/01/07 07:20:53;;;;;;;2.53;1.45;;;;;;;1.36;100.00;100779.91;6160750;28;20054;-81
2022/01/07 07:23:55;;;;;;;5.03;2.10;;;;;;;1.42;100.00;100782.41;6159761;28;20051;-80
2022/01/07 07:26:57;;;;;;;7.47;1.77;;;;;;;1.49;100.00;100789.19;6158005;28;20054;-83
2022/01/07 07:29:58;;;;;;;4.90;2.08;;;;;;;1.43;100.00;100768.59;6151423;28;20102;-82
2022/01/07 07:33:17;;;;;;;1.80;1.20;;;;;;;1.47;100.00;100775.44;6150609;29;20491;-82
2022/01/07 07:36:31;;;;;;;2.65;1.40;;;;;;;1.47;100.00;100775.44;6150345;29;20070;-83
2022/01/07 07:39:34;;;;;;;2.97;1.80;;;;;;;1.48;100.00;100780.56;6150649;29;20562;-82
2022/01/07 07:42:35;;;;;;;4.05;1.55;;;;;;;1.53;100.00;100777.91;6152812;28;20062;-82
2022/01/07 07:45:36;;;;;;;9.55;1.50;;;;;;;1.54;100.00;100779.59;6156599;28;20054;-82
2022/01/07 07:48:38;;;;;;;9.20;2.00;;;;;;;1.53;100.00;100775.31;6154844;28;20058;-82
2022/01/07 07:51:39;;;;;;;6.72;2.00;;;;;;;1.58;100.00;100770.06;6155806;28;20510;-81
2022/01/07 07:54:42;;;;;;;2.05;1.25;;;;;;;1.61;100.00;100768.28;6156918;28;20058;-82
2022/01/07 07:57:43;;;;;;;4.63;2.08;;;;;;;1.63;100.00;100771.69;6156849;28;20055;-81
2022/01/07 08:00:45;;;;;;;3.08;1.35;;;;;;;1.63;100.00;100773.44;6158468;28;20054;-82
2022/01/07 08:03:46;;;;;;;1.33;1.17;;;;;;;1.60;100.00;100769.16;6182691;28;20648;-81
2022/01/07 08:06:48;;;;;;;3.05;1.88;;;;;;;1.60;100.00;100766.59;6183577;28;20054;-82
2022/01/07 08:09:53;;;;;;;3.60;2.00;;;;;;;1.63;100.00;100773.44;6200923;28;20041;-80
2022/01/07 08:13:25;;;;;;;1.92;1.00;;;;;;;1.64;100.00;100770.84;6221439;28;20110;-81
2022/01/07 08:16:14;;;;;;;5.53;1.58;;;;;;;1.69;100.00;100760.41;6210842;28;20047;-82
2022/01/07 08:19:16;;;;;;;3.95;2.15;;;;;;;1.75;100.00;100765.47;6182872;28;20395;-82
2022/01/07 08:22:17;;;;;;;3.15;1.58;;;;;;;1.69;100.00;100763.00;6195298;28;20054;-81
2022/01/07 08:25:20;;;;;;;2.88;1.55;;;;;;;1.74;100.00;100763.75;6202032;28;20050;-81
2022/01/07 08:28:24;;;;;;;3.53;2.55;;;;;;;1.79;100.00;100764.53;6203170;28;20057;-83
2022/01/07 08:34:53;;;;;;;2.10;1.58;;;;;;;1.80;100.00;100766.25;6180236;28;20141;-81
2022/01/07 08:34:54;;;;;;;3.30;1.90;;;;;;;1.83;100.00;100767.94;6182553;28;20057;-81
2022/01/07 08:37:56;;;;;;;2.53;1.38;;;;;;;1.84;100.00;100762.72;6199195;28;20054;-82
2022/01/07 08:40:59;;;;;;;1.42;1.30;;;;;;;1.85;100.00;100766.16;6207191;28;20061;-82
2022/01/07 08:44:02;;;;;;;2.67;2.00;;;;;;;1.87;100.00;100761.81;6198383;28;20054;-81
2022/01/07 08:47:03;;;;;;;2.75;1.90;;;;;;;1.90;100.00;100762.59;6184176;28;20050;-84
2022/01/07 08:50:05;;;;;;;2.83;1.38;;;;;;;1.92;100.00;100757.41;6189874;28;20047;-80
2022/01/07 08:53:07;;;;;;;1.27;1.17;;;;;;;1.95;100.00;100762.53;6188978;28;20052;-81
2022/01/07 08:56:10;;;;;;;2.83;2.03;;;;;;;1.95;100.00;100763.41;6186796;28;20058;-80
2022/01/07 08:59:11;;;;;;;3.90;1.42;;;;;;;1.93;100.00;100759.97;6190138;28;20057;-82
2022/01/07 09:02:13;;;;;;;6.45;1.58;;;;;;;2.00;100.00;100761.59;6207904;28;20053;-80
2022/01/07 09:05:15;;;;;;;2.90;1.77;;;;;;;2.00;100.00;100760.72;6208975;28;20057;-81
2022/01/07 09:08:16;;;;;;;3.53;1.88;;;;;;;2.04;100.00;100772.72;6210645;28;20141;-81
2022/01/07 09:11:19;;;;;;;2.72;1.95;;;;;;;1.96;100.00;100749.56;6179730;28;20046;-81
2022/01/07 09:14:20;;;;;;;2.90;1.55;;;;;;;1.91;100.00;100751.38;6175549;28;20039;-82
2022/01/07 09:17:22;;;;;;;2.45;1.35;;;;;;;1.87;100.00;100757.50;6166870;28;20510;-82
2022/01/07 09:20:23;;;;;;;2.05;1.38;;;;;;;1.84;100.00;100754.94;6169226;28;20046;-80
2022/01/07 09:23:25;;;;;;;4.72;2.53;;;;;;;1.80;100.00;100771.41;6168424;28;20538;-81
2022/01/07 09:26:27;;;;;;;1.95;1.40;;;;;;;1.79;100.00;100759.34;6169208;28;20510;-79
2022/01/07 09:29:29;;;;;;;4.07;2.22;;;;;;;1.84;100.00;100769.63;6167860;28;20054;-81
2022/01/07 09:32:30;;;;;;;4.28;2.20;;;;;;;1.74;100.00;100763.75;6174208;28;20047;-79
2022/01/07 09:35:32;;;;;;;2.08;1.77;;;;;;;1.68;100.00;100769.03;6180009;28;20407;-79
2022/01/07 09:38:33;;;;;;;4.22;1.98;;;;;;;1.69;100.00;100757.81;6176270;28;20050;-79
2022/01/07 09:41:36;;;;;;;3.88;2.10;;;;;;;1.72;100.00;100755.16;6172639;28;20054;-79
2022/01/07 09:44:38;;;;;;;3.35;2.22;;;;;;;1.69;100.00;100756.06;6169609;28;20053;-78
2022/01/07 09:47:40;;;;;;;3.55;1.80;;;;;;;1.68;100.00;100753.50;6167490;28;20050;-81
2022/01/07 09:50:41;;;;;;;2.13;1.67;;;;;;;1.74;100.00;100746.47;6166588;28;20055;-79
2022/01/07 09:53:43;;;;;;;5.13;2.17;;;;;;;1.75;100.00;100755.97;6166671;28;20529;-79
2022/01/07 09:56:46;;;;;;;3.33;2.38;;;;;;;1.76;100.00;100757.66;6166298;28;20426;-78
2022/01/07 09:59:52;;;;;;;3.30;2.03;;;;;;;1.81;100.00;100759.31;6176295;28;20050;-79
2022/01/07 10:03:04;;;;;;;4.57;2.30;;;;;;;1.77;100.00;100751.63;6177959;28;20043;-78
2022/01/07 10:06:17;;;;;;;4.63;2.53;;;;;;;1.82;100.00;100742.88;6172027;28;20054;-79
2022/01/07 10:09:19;;;;;;;2.40;1.75;;;;;;;1.85;100.00;100735.06;6173864;28;20054;-79
2022/01/07 10:12:21;;;;;;;6.80;2.53;;;;;;;1.88;100.00;100735.88;6169341;28;20047;-82
2022/01/07 10:15:25;;;;;;;5.60;2.83;;;;;;;1.89;100.00;100729.81;6166810;28;20050;-81
2022/01/07 10:18:37;;;;;;;2.85;2.50;;;;;;;1.91;100.00;100729.81;6170521;28;20434;-80
2022/01/07 10:21:38;;;;;;;2.45;2.15;;;;;;;1.95;100.00;100736.59;6169830;28;20126;-79
2022/01/07 10:24:55;;;;;;;4.47;3.13;;;;;;;1.98;100.00;100750.38;6174297;28;20504;-79
2022/01/07 10:28:06;;;;;;;4.63;2.53;;;;;;;1.97;100.00;100746.06;6175057;28;20062;-79
2022/01/07 10:31:09;;;;;;;4.20;2.60;;;;;;;2.02;100.00;100746.84;6172060;28;20048;-79
2022/01/07 10:34:10;;;;;;;3.53;2.38;;;;;;;2.06;100.00;100745.06;6166744;28;20051;-79
2022/01/07 10:37:12;;;;;;;5.03;2.58;;;;;;;2.07;100.00;100744.16;6176304;28;20046;-79
2022/01/07 10:40:26;;;;;;;3.65;2.85;;;;;;;2.12;100.00;100737.16;6174589;28;20049;-80
2022/01/07 10:43:32;;;;;;;7.32;3.60;;;;;;;2.15;100.00;100741.44;6170638;28;20051;-80
2022/01/07 10:46:34;;;;;;;6.03;2.30;;;;;;;2.13;100.00;100746.63;6169384;28;20054;-79
2022/01/07 10:49:36;;;;;;;6.95;3.65;;;;;;;2.17;100.00;100743.09;6175452;28;20139;-80
2022/01/07 10:52:37;;;;;;;4.35;2.90;;;;;;;2.18;100.00;100744.84;6163443;28;20051;-78
2022/01/07 10:55:38;;;;;;;7.40;3.53;;;;;;;2.22;100.00;100743.88;6171297;28;20043;-79
2022/01/07 10:58:56;;;;;;;5.10;2.78;;;;;;;2.25;100.00;100737.78;6175701;28;20434;-80
2022/01/07 11:01:59;;;;;;;6.03;3.58;;;;;;;2.31;100.00;100736.81;6169033;28;20047;-79
2022/01/07 11:05:00;;;;;;;3.22;2.38;;;;;;;2.28;100.00;100735.16;6173263;28;20058;-80
2022/01/07 11:08:02;;;;;;;5.65;3.17;;;;;;;2.31;100.00;100729.03;6176413;28;20427;-80
2022/01/07 11:11:04;;;;;;;5.38;3.65;;;;;;;2.34;100.00;100729.81;6191716;28;20053;-80
2022/01/07 11:14:09;;;;;;;6.85;3.50;;;;;;;2.41;100.00;100725.38;6204058;28;20057;-81
2022/01/07 11:17:12;;;;;;;3.40;2.13;;;;;;;2.41;100.00;100721.06;6179008;28;20130;-81
2022/01/07 11:20:14;;;;;;;6.18;3.65;;;;;;;2.40;100.00;100721.06;6173079;28;20050;-80
2022/01/07 11:23:15;;;;;;;5.80;3.67;;;;;;;2.40;100.00;100734.03;6181284;28;20074;-80
2022/01/07 11:26:17;;;;;;;7.18;3.80;;;;;;;2.43;100.00;100713.22;6176575;28;20054;-80
2022/01/07 11:29:20;;;;;;;9.82;3.22;;;;;;;2.47;100.00;100715.72;6175357;28;20047;-80
2022/01/07 11:32:38;;;;;;;8.80;3.60;;;;;;;2.49;100.00;100723.47;6176378;28;20066;-80
2022/01/07 11:35:45;;;;;;;8.52;2.97;;;;;;;2.51;100.00;100716.53;6173398;28;20073;-78
2022/01/07 11:38:47;;;;;;;9.57;4.80;;;;;;;2.61;100.00;100709.41;6174151;28;20506;-80
2022/01/07 11:41:50;;;;;;;5.47;3.70;;;;;;;2.60;100.00;100710.28;6186381;28;20043;-80
2022/01/07 11:44:53;;;;;;;7.97;3.70;;;;;;;2.63;100.00;100698.09;6183612;28;20102;-82
2022/01/07 11:47:56;;;;;;;9.90;3.80;;;;;;;2.69;100.00;100707.50;6179309;28;20050;-81
2022/01/07 11:51:11;;;;;;;12.93;4.47;;;;;;;2.69;100.00;100710.94;6169753;28;20055;-81
2022/01/07 11:54:28;;;;;;;9.50;4.53;;;;;;;2.76;100.00;100709.91;6173378;28;20549;-82
2022/01/07 11:57:47;;;;;;;13.13;4.10;;;;;;;2.76;100.00;100709.91;6187235;28;20054;-79
2022/01/07 12:00:51;;;;;;;;;;;;;;;2.75;100.00;100709.94;6189212;28;20054;-83
2022/01/07 12:03:54;;;;;;;10.82;5.10;;;;;;;2.79;100.00;100707.25;6190225;28;19929;-80
2022/01/07 12:06:57;;;;;;;10.85;4.20;;;;;;;2.79;100.00;100716.78;6193865;28;20061;-79
2022/01/07 12:10:11;;;;;;;10.52;4.43;;;;;;;2.82;100.00;100711.53;6189255;28;20499;-81
2022/01/07 12:13:12;;;;;;;7.57;4.65;;;;;;;2.80;100.00;100714.16;6190009;28;20051;-81
2022/01/07 12:16:18;;;;;;;11.02;5.13;;;;;;;2.86;100.00;100704.50;6183411;28;20047;-81
2022/01/07 12:19:55;;;;;;;9.70;4.78;;;;;;;2.83;100.00;100712.41;6186511;28;20050;-80
2022/01/07 12:22:57;;;;;;;8.50;4.32;;;;;;;2.84;100.00;100704.56;6142744;28;20047;-83
2022/01/07 12:26:03;;;;;;;8.77;4.32;;;;;;;2.86;100.00;100700.22;6188472;28;20053;-81
2022/01/07 12:29:05;;;;;;;6.32;4.20;;;;;;;2.82;100.00;100695.09;6203428;28;20510;-81
2022/01/07 12:32:11;;;;;;;6.07;3.95;;;;;;;2.88;100.00;100695.81;6191708;28;20494;-83
2022/01/07 12:35:13;;;;;;;11.38;6.07;;;;;;;2.91;100.00;100695.75;6188753;28;20051;-82
2022/01/07 12:38:17;;;;;;;14.82;4.95;;;;;;;2.91;100.00;100705.28;6187549;28;20054;-81
2022/01/07 12:41:21;;;;;;;10.10;4.65;;;;;;;2.95;100.00;100693.94;6201171;28;20062;-81
2022/01/07 12:44:23;;;;;;;10.85;4.28;;;;;;;2.96;100.00;100690.47;6188375;28;20189;-80
2022/01/07 12:47:29;;;;;;;10.13;5.07;;;;;;;2.92;100.00;100676.69;6183943;28;20486;-83
2022/01/07 12:50:31;;;;;;;14.45;5.32;;;;;;;2.92;100.00;100684.50;6184792;28;20050;-82
2022/01/07 12:53:32;;;;;;;6.93;4.68;;;;;;;2.92;100.00;100683.63;6175288;28;20055;-81
2022/01/07 12:56:36;;;;;;;11.35;4.88;;;;;;;2.94;100.00;100679.25;6172113;28;20073;-82
2022/01/07 12:59:37;;;;;;;10.57;5.30;;;;;;;2.96;100.00;100686.13;6185001;28;20061;-79
2022/01/07 13:02:42;;;;;;;11.38;4.88;;;;;;;3.02;100.00;100679.94;6184956;28;20047;-81
2022/01/07 13:05:46;;;;;;;10.30;5.40;;;;;;;3.01;100.00;100686.03;6183966;28;20046;-81
2022/01/07 13:08:47;;;;;;;11.13;4.50;;;;;;;2.97;100.00;100674.84;6192894;28;20069;-82
2022/01/07 13:11:50;;;;;;;6.88;4.32;;;;;;;2.99;100.00;100674.81;6188316;28;20053;-80
2022/01/07 13:14:52;;;;;;;8.05;4.30;;;;;;;2.98;100.00;100675.69;6184173;28;20072;-83
2022/01/07 13:17:54;;;;;;;11.40;5.15;;;;;;;3.02;100.00;100680.78;6182400;28;20166;-82
2022/01/07 13:21:08;;;;;;;13.45;4.93;;;;;;;3.02;100.00;100669.56;6181069;28;20538;-84
2022/01/07 13:24:14;;;;;;;10.65;4.35;;;;;;;2.99;100.00;100665.28;6169202;28;20089;-82
2022/01/07 13:27:15;;;;;;;8.75;5.00;;;;;;;3.01;100.00;100670.44;6182558;28;20054;-82
2022/01/07 13:30:17;;;;;;;7.32;3.83;;;;;;;3.05;100.00;100664.28;6180074;28;20053;-84
2022/01/07 13:33:27;;;;;;;11.07;4.93;;;;;;;3.04;100.00;100675.53;6175189;28;20094;-84
2022/01/07 13:36:36;;;;;;;7.97;4.05;;;;;;;3.06;100.00;100673.78;6174841;28;20051;-80
2022/01/07 13:39:40;;;;;;;7.95;4.57;;;;;;;3.06;100.00;100678.97;6180556;28;20074;-79
2022/01/07 13:42:41;;;;;;;10.60;4.28;;;;;;;3.07;100.00;100680.66;6177148;28;20078;-81
2022/01/07 13:45:44;;;;;;;14.35;4.85;;;;;;;3.08;100.00;100666.78;6178419;28;20047;-82
2022/01/07 13:48:59;;;;;;;8.40;4.72;;;;;;;3.10;100.00;100656.41;6173633;28;20073;-82
2022/01/07 13:52:04;;;;;;;9.30;4.90;;;;;;;3.16;100.00;100657.09;6176309;28;20410;-84
2022/01/07 13:55:06;;;;;;;12.63;5.43;;;;;;;3.21;100.00;100655.22;6181163;28;20658;-83
2022/01/07 13:58:09;;;;;;;11.60;6.18;;;;;;;3.25;100.00;100638.69;6177180;28;20514;-82
2022/01/07 14:01:10;;;;;;;8.27;3.38;;;;;;;3.23;100.00;100647.41;6168117;28;20050;-82
2022/01/07 14:04:13;;;;;;;9.48;4.50;;;;;;;3.22;100.00;100643.09;6172331;28;20050;-82
2022/01/07 14:07:29;;;;;;;9.77;5.18;;;;;;;3.27;100.00;100639.50;6174306;28;20047;-81
2022/01/07 14:10:32;;;;;;;7.53;4.05;;;;;;;3.30;100.00;100642.00;6165598;28;20046;-83